Аэропорт: Наримановка. Костанай

ICAO: UAUU

METAR:
2024-04-22 22:30:00
UAUU 222230Z 04003MPS CAVOK 13/07 Q1022 NOSIG RMK QFE750/1001
TAF:
2024-04-22 20:00:00
TAF UAUU 222000Z 2221/2306 08005MPS 9999 SCT030 
  TEMPO 2221/2223 05005G10MPS 
  TEMPO 2223/2306 05006G11MPS 3100 BR